Time;durP1;ratioP1;P1;durP2;ratioP2;P2;SDS_P1;SDS_P2;PMS_P1;PMS_P2;Temp;Humidity;BMP_temperature;BMP_pressure;BME280_temperature;BME280_humidity;BME280_pressure;Samples;Min_cycle;Max_cycle;Signal;HPM_P1;HPM_P2
2022/01/18 00:00:29;;;;;;;0.40;0.30;;;;;;;1.45;99.46;102667.69;5092945;28;20981;-70
2022/01/18 00:02:57;;;;;;;0.40;0.30;;;;;;;1.45;98.80;102662.34;5092966;28;20475;-70
2022/01/18 00:05:23;;;;;;;0.40;0.30;;;;;;;1.43;98.70;102669.72;5093236;28;20543;-70
2022/01/18 00:07:50;;;;;;;0.40;0.30;;;;;;;1.34;99.99;102674.34;5093225;28;20432;-70
2022/01/18 00:10:17;;;;;;;0.40;0.30;;;;;;;1.37;99.06;102679.28;5093191;28;20443;-69
2022/01/18 00:13:07;;;;;;;0.40;0.30;;;;;;;1.35;98.96;102684.00;5093121;28;20472;-69
2022/01/18 00:15:40;;;;;;;0.40;0.30;;;;;;;1.35;98.91;102686.66;5093138;28;20531;-70
2022/01/18 00:18:12;;;;;;;0.50;0.43;;;;;;;1.33;98.85;102679.84;5093118;28;20796;-70
2022/01/18 00:20:52;;;;;;;0.40;0.30;;;;;;;1.25;99.13;102670.97;5093082;28;20460;-69
2022/01/18 00:23:20;;;;;;;0.40;0.30;;;;;;;1.25;98.99;102672.81;5092742;28;20843;-70
2022/01/18 00:25:50;;;;;;;0.40;0.20;;;;;;;1.18;98.58;102675.38;5092994;28;20440;-69
2022/01/18 00:28:18;;;;;;;0.40;0.30;;;;;;;1.16;99.07;102679.25;5093037;28;20440;-69
2022/01/18 00:31:12;;;;;;;0.40;0.30;;;;;;;1.15;99.54;102688.25;5092998;28;20443;-70
2022/01/18 00:33:55;;;;;;;0.40;0.30;;;;;;;1.13;99.75;102690.28;5092889;28;20490;-70
2022/01/18 00:36:27;;;;;;;0.40;0.30;;;;;;;1.11;99.97;102681.66;5092986;28;20807;-69
2022/01/18 00:38:55;;;;;;;0.40;0.30;;;;;;;1.12;99.85;102694.81;5092945;28;20847;-69
2022/01/18 00:41:23;;;;;;;0.40;0.30;;;;;;;1.08;99.90;102698.03;5092487;28;21000;-70
2022/01/18 00:43:52;;;;;;;0.40;0.20;;;;;;;1.06;100.00;102702.72;5092843;28;20515;-69
2022/01/18 00:46:19;;;;;;;0.40;0.30;;;;;;;1.00;100.00;102712.28;5092889;28;20436;-69
2022/01/18 00:48:45;;;;;;;0.40;0.30;;;;;;;0.96;100.00;102716.34;5096262;28;20852;-69
2022/01/18 00:51:14;;;;;;;0.40;0.30;;;;;;;0.96;100.00;102716.34;5096572;28;20436;-69
2022/01/18 00:53:42;;;;;;;0.40;0.30;;;;;;;0.93;100.00;102712.22;5096128;28;20883;-69
2022/01/18 00:56:19;;;;;;;0.40;0.30;;;;;;;0.90;100.00;102714.41;5096479;28;20455;-69
2022/01/18 00:58:47;;;;;;;0.40;0.30;;;;;;;0.91;100.00;102710.72;5096460;28;20475;-69
2022/01/18 01:01:16;;;;;;;0.40;0.30;;;;;;;0.92;100.00;102709.72;5096350;28;20512;-68
2022/01/18 01:03:43;;;;;;;0.40;0.30;;;;;;;0.89;100.00;102721.59;5095891;28;20476;-69
2022/01/18 01:06:10;;;;;;;0.40;0.30;;;;;;;0.90;100.00;102717.09;5095931;28;20440;-69
2022/01/18 01:08:37;;;;;;;0.40;0.30;;;;;;;0.89;100.00;102724.28;5096282;28;20443;-70
2022/01/18 01:11:06;;;;;;;0.40;0.30;;;;;;;0.87;100.00;102715.59;5095911;28;20949;-69
2022/01/18 01:13:33;;;;;;;0.40;0.30;;;;;;;0.88;100.00;102713.75;5096062;28;20475;-69
2022/01/18 01:16:11;;;;;;;2.93;2.83;;;;;;;0.87;100.00;102720.13;5096104;28;20489;-69
2022/01/18 01:18:48;;;;;;;0.40;0.30;;;;;;;0.86;100.00;102711.28;5096106;28;20478;-69
2022/01/18 01:35:04;;;;;;;0.40;0.30;;;;;;;0.81;100.00;102728.88;5093432;28;20443;-69
2022/01/18 01:43:11;;;;;;;0.40;0.30;;;;;;;0.79;100.00;102723.69;5095377;28;20501;-69
2022/01/18 01:45:38;;;;;;;0.40;0.30;;;;;;;0.75;100.00;102714.41;5095620;28;20468;-68
2022/01/18 01:48:05;;;;;;;0.40;0.30;;;;;;;0.78;100.00;102716.69;5095511;28;20463;-68
2022/01/18 01:50:43;;;;;;;0.40;0.30;;;;;;;0.77;100.00;102716.91;5095131;28;20874;-68
2022/01/18 01:53:10;;;;;;;0.40;0.30;;;;;;;0.82;100.00;102725.19;5095342;28;20464;-69
2022/01/18 01:55:37;;;;;;;0.40;0.20;;;;;;;0.85;100.00;102730.16;5095376;28;20440;-68
2022/01/18 01:58:03;;;;;;;0.40;0.30;;;;;;;0.85;100.00;102727.50;5095278;28;20436;-68
2022/01/18 02:00:30;;;;;;;0.40;0.30;;;;;;;0.88;100.00;102727.09;5094571;28;20480;-69
2022/01/18 02:02:57;;;;;;;0.40;0.30;;;;;;;0.88;100.00;102729.75;5094822;28;20487;-69
2022/01/18 02:05:23;;;;;;;0.40;0.30;;;;;;;0.82;100.00;102725.19;5095120;28;20436;-68
2022/01/18 02:07:51;;;;;;;0.40;0.20;;;;;;;0.89;100.00;102736.78;5095126;28;20478;-68
2022/01/18 02:10:18;;;;;;;0.40;0.30;;;;;;;0.83;100.00;102730.31;5094750;28;20466;-68
2022/01/18 02:12:44;;;;;;;0.40;0.30;;;;;;;0.87;100.00;102725.44;5094753;28;20460;-68
2022/01/18 02:15:14;;;;;;;0.40;0.30;;;;;;;0.89;100.00;102715.44;5094648;28;20824;-67
2022/01/18 02:23:17;;;;;;;0.40;0.30;;;;;;;0.81;100.00;102713.69;5094536;28;20516;-68
2022/01/18 02:25:44;;;;;;;0.40;0.30;;;;;;;0.81;100.00;102718.19;5094769;28;20443;-68
2022/01/18 02:28:12;;;;;;;0.40;0.30;;;;;;;0.84;100.00;102718.66;5094723;28;20448;-68
2022/01/18 02:30:39;;;;;;;0.40;0.30;;;;;;;0.86;100.00;102721.13;5094660;28;20436;-68
2022/01/18 02:33:06;;;;;;;0.40;0.30;;;;;;;0.83;100.00;102714.31;5094540;28;20517;-68
2022/01/18 02:35:34;;;;;;;0.40;0.30;;;;;;;0.86;100.00;102723.81;5094595;28;20496;-68
2022/01/18 02:38:01;;;;;;;0.40;0.30;;;;;;;0.87;100.00;102720.94;5094588;28;20518;-68
2022/01/18 02:40:29;;;;;;;0.40;0.30;;;;;;;0.85;100.00;102730.16;5094426;28;20480;-69
2022/01/18 02:42:59;;;;;;;0.40;0.30;;;;;;;0.83;100.00;102729.50;5094721;28;20495;-69
2022/01/18 02:45:26;;;;;;;0.40;0.30;;;;;;;0.79;100.00;102726.34;5094363;28;20444;-69
2022/01/18 02:47:52;;;;;;;0.40;0.30;;;;;;;0.82;100.00;102720.66;5094451;28;20447;-69
2022/01/18 02:50:19;;;;;;;0.40;0.27;;;;;;;0.84;100.00;102724.00;5094276;28;20441;-68
2022/01/18 02:52:47;;;;;;;0.40;0.30;;;;;;;0.84;100.00;102723.13;5094234;28;20471;-69
2022/01/18 02:55:14;;;;;;;0.40;0.30;;;;;;;0.89;100.00;102731.44;5093872;28;20956;-68
2022/01/18 02:57:53;;;;;;;0.40;0.30;;;;;;;0.91;100.00;102735.56;5094158;28;20474;-67
2022/01/18 03:00:27;;;;;;;0.40;0.20;;;;;;;0.86;100.00;102729.13;5093758;28;20815;-69
2022/01/18 03:03:13;;;;;;;0.40;0.30;;;;;;;0.90;100.00;102725.09;5093829;28;20476;-70
2022/01/18 03:05:40;;;;;;;0.40;0.30;;;;;;;0.90;100.00;102733.09;5094111;28;20458;-74
2022/01/18 03:08:10;;;;;;;0.40;0.30;;;;;;;0.89;100.00;102747.44;5093989;28;20489;-74
2022/01/18 03:10:37;;;;;;;0.40;0.30;;;;;;;0.86;100.00;102743.31;5093045;28;20818;-70
2022/01/18 03:13:03;;;;;;;0.40;0.30;;;;;;;0.89;100.00;102752.78;5093833;28;20461;-69
2022/01/18 03:15:30;;;;;;;0.40;0.30;;;;;;;0.92;100.00;102757.75;5093835;28;20965;-68
2022/01/18 03:17:56;;;;;;;0.40;0.27;;;;;;;0.95;100.00;102765.38;5093816;28;20440;-68
2022/01/18 03:20:24;;;;;;;0.40;0.30;;;;;;;0.94;100.00;102769.06;5093691;28;20444;-68
2022/01/18 03:22:50;;;;;;;0.40;0.30;;;;;;;0.94;100.00;102753.06;5093698;28;20464;-68
2022/01/18 03:25:39;;;;;;;0.40;0.20;;;;;;;0.92;100.00;102758.56;5093686;28;20445;-68
2022/01/18 03:28:08;;;;;;;0.40;0.30;;;;;;;0.84;100.00;102765.81;5093699;28;20424;-68
2022/01/18 03:30:35;;;;;;;0.40;0.30;;;;;;;0.82;100.00;102762.53;5093635;28;20791;-68
2022/01/18 03:33:03;;;;;;;0.40;0.30;;;;;;;0.86;100.00;102763.81;5093524;28;20534;-68
2022/01/18 03:35:30;;;;;;;0.40;0.20;;;;;;;0.87;100.00;102768.13;5093784;28;20436;-68
2022/01/18 03:37:57;;;;;;;0.40;0.30;;;;;;;0.93;100.00;102775.41;5093514;28;20444;-68
2022/01/18 03:40:25;;;;;;;0.40;0.30;;;;;;;0.99;100.00;102775.50;5093370;28;20451;-69
2022/01/18 03:42:54;;;;;;;0.40;0.30;;;;;;;1.06;100.00;102780.94;5093322;28;20844;-68
2022/01/18 03:45:24;;;;;;;0.40;0.20;;;;;;;1.07;100.00;102779.94;5093429;28;20444;-68
2022/01/18 03:47:51;;;;;;;0.40;0.30;;;;;;;1.04;100.00;102782.97;5093091;28;20447;-68
2022/01/18 03:50:18;;;;;;;0.40;0.30;;;;;;;1.02;100.00;102782.34;5093109;28;20934;-68
2022/01/18 03:52:46;;;;;;;0.40;0.30;;;;;;;1.07;100.00;102787.94;5093334;28;20463;-68
2022/01/18 03:55:15;;;;;;;0.40;0.30;;;;;;;1.11;100.00;102775.88;5093427;28;20822;-68
2022/01/18 03:57:43;;;;;;;0.40;0.20;;;;;;;1.12;100.00;102780.22;5093311;28;20440;-68
2022/01/18 04:00:12;;;;;;;0.40;0.30;;;;;;;1.16;100.00;102781.50;5093279;28;20448;-68
2022/01/18 04:02:39;;;;;;;0.40;0.30;;;;;;;1.17;100.00;102793.00;5092893;28;20485;-68
2022/01/18 04:05:06;;;;;;;0.40;0.20;;;;;;;1.19;100.00;102778.44;5092881;28;20796;-68
2022/01/18 04:07:33;;;;;;;0.40;0.30;;;;;;;1.24;100.00;102783.25;5093249;28;20440;-68
2022/01/18 04:10:00;;;;;;;0.40;0.30;;;;;;;1.24;100.00;102777.91;5092977;28;20436;-68
2022/01/18 04:12:26;;;;;;;0.40;0.30;;;;;;;1.32;100.00;102784.97;5093062;28;20448;-68
2022/01/18 04:14:55;;;;;;;0.40;0.20;;;;;;;1.26;100.00;102791.91;5093124;28;20474;-68
2022/01/18 04:17:43;;;;;;;0.40;0.30;;;;;;;1.33;100.00;102791.97;5093115;28;20442;-68
2022/01/18 04:26:00;;;;;;;0.40;0.30;;;;;;;1.39;100.00;102807.28;5097037;28;20400;-68
2022/01/18 04:28:34;;;;;;;0.40;0.30;;;;;;;1.43;100.00;102809.38;5097138;28;20467;-68
2022/01/18 04:31:03;;;;;;;0.40;0.30;;;;;;;1.43;100.00;102813.91;5097047;28;20448;-68
2022/01/18 04:33:29;;;;;;;0.40;0.30;;;;;;;1.45;100.00;102806.53;5098205;28;20834;-68
2022/01/18 04:35:56;;;;;;;0.40;0.30;;;;;;;1.47;100.00;102800.00;5096935;28;20447;-69
2022/01/18 04:38:22;;;;;;;0.40;0.30;;;;;;;1.50;100.00;102799.59;5096860;28;20443;-69
2022/01/18 04:40:49;;;;;;;0.40;0.30;;;;;;;1.52;100.00;102808.28;5096748;28;20440;-68
2022/01/18 04:43:21;;;;;;;0.40;0.23;;;;;;;1.46;100.00;102809.03;5096666;28;20464;-68
2022/01/18 04:48:35;;;;;;;0.40;0.30;;;;;;;1.46;100.00;102813.50;5096624;28;20404;-68
2022/01/18 04:51:04;;;;;;;0.40;0.20;;;;;;;1.41;100.00;102814.06;5096631;28;20491;-68
2022/01/18 04:53:32;;;;;;;0.40;0.30;;;;;;;1.34;100.00;102815.84;5096556;28;20460;-69
2022/01/18 04:56:03;;;;;;;0.40;0.30;;;;;;;1.32;99.96;102817.84;5096588;28;20440;-69
2022/01/18 04:58:30;;;;;;;0.40;0.30;;;;;;;1.33;99.69;102810.66;5096113;28;20445;-69
2022/01/18 05:00:59;;;;;;;0.40;0.30;;;;;;;1.10;100.00;102819.56;5096309;28;20437;-69
2022/01/18 05:03:27;;;;;;;0.40;0.30;;;;;;;1.18;100.00;102816.84;5095946;28;20857;-69
2022/01/18 05:05:57;;;;;;;0.40;0.30;;;;;;;1.11;100.00;102823.94;5096346;28;20440;-69
2022/01/18 05:08:24;;;;;;;0.40;0.30;;;;;;;1.03;99.97;102813.34;5096360;28;20444;-69
2022/01/18 05:10:56;;;;;;;0.40;0.30;;;;;;;1.06;100.00;102812.94;5096248;28;20472;-69
2022/01/18 05:16:20;;;;;;;0.40;0.30;;;;;;;0.86;100.00;102822.50;5093188;28;20964;-69
2022/01/18 05:19:07;;;;;;;0.40;0.30;;;;;;;0.80;100.00;102824.06;5096092;28;20425;-69
2022/01/18 05:22:56;;;;;;;0.40;0.30;;;;;;;0.69;100.00;102835.97;5095793;28;20460;-69
2022/01/18 05:24:23;;;;;;;0.40;0.30;;;;;;;0.56;100.00;102833.06;5095421;28;20452;-70
2022/01/18 05:26:51;;;;;;;0.40;0.30;;;;;;;0.56;100.00;102830.41;5095895;28;20440;-69
2022/01/18 05:29:17;;;;;;;0.40;0.30;;;;;;;0.51;100.00;102827.47;5095592;28;20816;-69
2022/01/18 05:31:44;;;;;;;0.40;0.30;;;;;;;0.56;100.00;102829.59;5095816;28;20428;-69
2022/01/18 05:34:11;;;;;;;0.40;0.27;;;;;;;0.56;100.00;102838.41;5094673;28;20461;-69
2022/01/18 05:36:40;;;;;;;0.40;0.23;;;;;;;0.50;100.00;102829.28;5095470;28;20502;-69
2022/01/18 05:39:09;;;;;;;0.40;0.30;;;;;;;0.41;100.00;102840.19;5095401;28;20436;-68
2022/01/18 05:41:35;;;;;;;0.40;0.30;;;;;;;0.37;100.00;102836.22;5094948;28;20984;-69
2022/01/18 05:44:02;;;;;;;0.40;0.30;;;;;;;0.35;100.00;102843.56;5095242;28;20467;-69
2022/01/18 05:46:28;;;;;;;0.40;0.30;;;;;;;0.36;100.00;102842.56;5094960;28;20517;-69
2022/01/18 05:48:55;;;;;;;0.40;0.30;;;;;;;0.38;100.00;102840.53;5095268;28;20443;-72
2022/01/18 05:51:21;;;;;;;0.40;0.30;;;;;;;0.35;100.00;102840.91;5095237;28;20846;-72
2022/01/18 05:53:49;;;;;;;0.40;0.30;;;;;;;0.54;100.00;102851.09;5095567;28;20487;-70
2022/01/18 05:56:16;;;;;;;0.40;0.30;;;;;;;0.60;100.00;102862.88;5095498;28;20455;-69
2022/01/18 05:58:44;;;;;;;0.40;0.23;;;;;;;0.59;100.00;102850.56;5094998;28;21023;-72
2022/01/18 06:01:13;;;;;;;0.40;0.30;;;;;;;0.57;100.00;102845.41;5094832;28;20980;-72
2022/01/18 06:03:52;;;;;;;0.40;0.30;;;;;;;0.59;100.00;102846.06;5094816;28;20475;-69
2022/01/18 06:09:05;;;;;;;0.40;0.30;;;;;;;0.64;100.00;102851.69;5095044;28;20458;-69
2022/01/18 06:11:31;;;;;;;0.40;0.30;;;;;;;0.67;100.00;102856.66;5095118;28;20448;-69
2022/01/18 06:13:58;;;;;;;0.40;0.20;;;;;;;0.61;100.00;102860.03;5094663;28;21034;-69
2022/01/18 06:16:25;;;;;;;0.40;0.30;;;;;;;0.69;100.00;102853.81;5094790;28;20944;-69
2022/01/18 06:18:52;;;;;;;0.40;0.20;;;;;;;0.79;100.00;102849.06;5094581;28;20441;-69
2022/01/18 06:21:18;;;;;;;0.40;0.30;;;;;;;0.80;100.00;102856.06;5094324;28;20923;-69
2022/01/18 06:23:45;;;;;;;0.40;0.27;;;;;;;0.85;100.00;102867.03;5094668;28;20457;-68
2022/01/18 06:26:15;;;;;;;0.40;0.30;;;;;;;0.88;100.00;102860.47;5094747;28;20445;-69
2022/01/18 06:28:41;;;;;;;0.40;0.30;;;;;;;0.88;100.00;102871.16;5094482;28;20935;-71
2022/01/18 06:31:08;;;;;;;0.40;0.30;;;;;;;0.82;100.00;102863.88;5094392;28;20445;-70
2022/01/18 06:33:34;;;;;;;0.40;0.30;;;;;;;0.83;100.00;102870.88;5094424;28;20460;-70
2022/01/18 06:36:01;;;;;;;0.40;0.30;;;;;;;0.83;100.00;102868.19;5094504;28;20945;-69
2022/01/18 06:38:27;;;;;;;0.40;0.30;;;;;;;0.84;100.00;102877.84;5094549;28;20439;-69
2022/01/18 06:40:54;;;;;;;0.40;0.30;;;;;;;0.89;100.00;102880.84;5094503;28;20452;-69
2022/01/18 06:43:22;;;;;;;0.40;0.30;;;;;;;0.93;100.00;102879.44;5094367;28;20487;-69
2022/01/18 06:45:48;;;;;;;0.40;0.30;;;;;;;1.00;100.00;102888.41;5094353;28;20435;-69
2022/01/18 06:48:15;;;;;;;0.40;0.30;;;;;;;1.02;99.88;102889.06;5094065;28;20464;-69
2022/01/18 06:50:41;;;;;;;0.40;0.30;;;;;;;0.98;99.97;102885.91;5095211;28;20444;-69
2022/01/18 06:53:08;;;;;;;0.70;0.70;;;;;;;0.93;100.00;102887.44;5094349;28;20452;-70
2022/01/18 06:55:34;;;;;;;0.40;0.30;;;;;;;1.01;100.00;102887.38;5094425;28;20441;-69
2022/01/18 06:58:01;;;;;;;0.40;0.20;;;;;;;1.04;100.00;102883.53;5094152;28;20443;-69
2022/01/18 07:00:29;;;;;;;0.40;0.30;;;;;;;0.98;100.00;102890.44;5094417;28;20487;-69
2022/01/18 07:02:56;;;;;;;0.40;0.30;;;;;;;1.09;100.00;102903.31;5093824;28;20488;-69
2022/01/18 07:05:22;;;;;;;0.40;0.30;;;;;;;1.13;100.00;102907.28;5093950;28;20938;-68
2022/01/18 07:07:49;;;;;;;0.40;0.30;;;;;;;1.10;100.00;102910.31;5093852;28;20429;-69
2022/01/18 07:10:15;;;;;;;0.40;0.30;;;;;;;1.08;100.00;102907.00;5094117;28;20433;-69
2022/01/18 07:12:42;;;;;;;0.40;0.20;;;;;;;1.12;100.00;102907.47;5093767;28;20488;-69
2022/01/18 07:15:09;;;;;;;0.40;0.30;;;;;;;1.13;100.00;102903.78;5093886;28;20938;-69
2022/01/18 07:17:38;;;;;;;0.40;0.30;;;;;;;1.21;100.00;102914.41;5094239;28;20467;-69
2022/01/18 07:20:05;;;;;;;0.40;0.30;;;;;;;1.33;100.00;102917.44;5094062;28;20554;-69
2022/01/18 07:22:32;;;;;;;0.40;0.20;;;;;;;1.32;100.00;102926.47;5094000;28;20488;-69
2022/01/18 07:24:59;;;;;;;0.40;0.30;;;;;;;1.43;100.00;102926.03;5093852;28;20487;-69
2022/01/18 07:27:26;;;;;;;0.40;0.30;;;;;;;1.50;100.00;102925.13;5094183;28;20818;-69
2022/01/18 07:29:52;;;;;;;0.40;0.30;;;;;;;1.55;100.00;102932.59;5093709;28;20856;-69
2022/01/18 07:32:20;;;;;;;0.40;0.20;;;;;;;1.55;100.00;102935.28;5093452;28;20945;-69
2022/01/18 07:34:52;;;;;;;0.40;0.20;;;;;;;1.59;100.00;102944.56;5093780;28;20494;-69
2022/01/18 07:37:19;;;;;;;0.40;0.30;;;;;;;1.66;100.00;102942.81;5093795;28;20451;-69
2022/01/18 07:39:46;;;;;;;0.40;0.30;;;;;;;1.74;100.00;102941.91;5093664;28;20799;-69
2022/01/18 07:42:12;;;;;;;0.40;0.30;;;;;;;1.70;100.00;102945.97;5093481;28;20491;-68
2022/01/18 07:44:39;;;;;;;0.40;0.27;;;;;;;1.67;100.00;102957.84;5093882;28;20445;-69
2022/01/18 07:47:05;;;;;;;0.40;0.30;;;;;;;1.71;100.00;102964.47;5093622;28;20437;-69
2022/01/18 07:49:32;;;;;;;0.40;0.30;;;;;;;1.79;100.00;102963.56;5093467;28;20435;-69
2022/01/18 07:52:00;;;;;;;0.40;0.30;;;;;;;1.84;100.00;102958.50;5093374;28;20444;-69
2022/01/18 07:54:26;;;;;;;0.40;0.30;;;;;;;1.92;100.00;102960.25;5093475;28;20468;-69
2022/01/18 07:56:52;;;;;;;0.40;0.30;;;;;;;2.00;100.00;102962.84;5092778;28;20475;-69
2022/01/18 07:59:20;;;;;;;0.40;0.30;;;;;;;2.01;100.00;102961.81;5093458;28;20444;-69
2022/01/18 08:01:47;;;;;;;0.40;0.30;;;;;;;2.01;100.00;102983.19;5093216;28;20451;-69
2022/01/18 08:04:13;;;;;;;0.40;0.30;;;;;;;1.96;100.00;102982.91;5093338;28;20468;-68
2022/01/18 08:06:40;;;;;;;0.40;0.30;;;;;;;1.98;100.00;102991.56;5093130;28;20942;-69
2022/01/18 08:09:08;;;;;;;0.40;0.30;;;;;;;1.99;100.00;102977.19;5093290;28;20472;-69
2022/01/18 08:11:34;;;;;;;0.40;0.20;;;;;;;2.01;100.00;102972.50;5093419;28;20472;-69
2022/01/18 08:14:02;;;;;;;0.40;0.20;;;;;;;2.03;100.00;102986.50;5093258;28;20467;-69
2022/01/18 08:16:47;;;;;;;0.40;0.27;;;;;;;2.01;100.00;102988.53;5092967;28;21020;-69
2022/01/18 08:19:13;;;;;;;0.40;0.30;;;;;;;2.07;100.00;102989.63;5093424;28;20425;-69
2022/01/18 08:21:40;;;;;;;0.40;0.30;;;;;;;2.21;100.00;102988.78;5093629;28;20436;-69
2022/01/18 08:24:08;;;;;;;0.40;0.30;;;;;;;2.22;100.00;102993.16;5093131;28;20492;-69
2022/01/18 08:26:34;;;;;;;0.40;0.30;;;;;;;2.30;99.82;102990.34;5092862;28;20934;-69
2022/01/18 08:29:01;;;;;;;0.40;0.30;;;;;;;2.37;100.00;103004.66;5093130;28;20494;-69
2022/01/18 08:31:27;;;;;;;0.40;0.20;;;;;;;2.43;99.96;103005.75;5093034;28;20440;-69
2022/01/18 08:33:54;;;;;;;0.40;0.30;;;;;;;2.46;99.47;103003.53;5093015;28;20467;-69
2022/01/18 08:36:20;;;;;;;0.40;0.30;;;;;;;2.52;99.61;102992.09;5092776;28;20498;-69
2022/01/18 08:38:47;;;;;;;0.40;0.30;;;;;;;2.63;100.00;102995.28;5093004;28;20445;-69
2022/01/18 08:41:16;;;;;;;0.40;0.23;;;;;;;2.75;100.00;102997.28;5092956;28;20535;-69
2022/01/18 08:43:42;;;;;;;0.40;0.30;;;;;;;2.80;100.00;102999.41;5092449;28;21005;-69
2022/01/18 08:46:10;;;;;;;0.40;0.30;;;;;;;2.84;100.00;103005.22;5092962;28;20444;-69
2022/01/18 08:48:37;;;;;;;0.40;0.20;;;;;;;2.94;100.00;103011.91;5092977;28;20498;-68
2022/01/18 08:51:04;;;;;;;0.40;0.30;;;;;;;3.00;100.00;103008.44;5092903;28;20444;-69
2022/01/18 08:53:31;;;;;;;0.40;0.30;;;;;;;3.12;100.00;103003.44;5092880;28;20825;-69
2022/01/18 08:55:57;;;;;;;0.40;0.30;;;;;;;3.17;100.00;103003.69;5092898;28;20440;-69
2022/01/18 08:58:26;;;;;;;0.40;0.30;;;;;;;3.26;100.00;103015.09;5092934;28;20459;-69
2022/01/18 09:00:53;;;;;;;0.40;0.23;;;;;;;3.34;100.00;103022.19;5092592;28;20998;-69
2022/01/18 09:03:19;;;;;;;0.40;0.30;;;;;;;3.39;100.00;103025.94;5092492;28;20491;-71
2022/01/18 09:05:46;;;;;;;3.17;2.97;;;;;;;3.42;100.00;103024.72;5092806;28;20440;-69
2022/01/18 09:08:14;;;;;;;0.40;0.30;;;;;;;3.49;100.00;103034.44;5093095;28;20436;-69
2022/01/18 09:10:41;;;;;;;0.40;0.30;;;;;;;3.60;100.00;103026.94;5095897;28;20479;-69
2022/01/18 09:13:08;;;;;;;0.40;0.30;;;;;;;3.71;99.97;103040.63;5083022;28;20488;-69
2022/01/18 09:15:36;;;;;;;0.40;0.30;;;;;;;3.80;99.70;103043.97;5075679;28;20433;-69
2022/01/18 09:18:02;;;;;;;0.40;0.30;;;;;;;3.88;99.45;103051.88;5075924;28;20433;-69
2022/01/18 09:20:30;;;;;;;0.50;0.40;;;;;;;3.96;98.99;103045.56;5075885;28;20449;-69
2022/01/18 09:22:57;;;;;;;0.40;0.30;;;;;;;4.04;98.59;103048.91;5075700;28;20492;-69
2022/01/18 09:25:26;;;;;;;0.40;0.30;;;;;;;4.16;97.91;103049.19;5075880;28;20453;-69
2022/01/18 09:27:53;;;;;;;0.40;0.20;;;;;;;4.26;97.23;103052.34;5075473;28;20445;-69
2022/01/18 09:30:20;;;;;;;0.40;0.20;;;;;;;4.36;96.76;103053.84;5075608;28;20492;-68
2022/01/18 09:32:49;;;;;;;3.93;2.90;;;;;;;4.43;95.72;103054.72;5075344;28;20979;-69
2022/01/18 09:35:17;;;;;;;0.40;0.27;;;;;;;4.48;95.31;103063.81;5075645;28;20472;-69
2022/01/18 09:37:44;;;;;;;0.40;0.30;;;;;;;4.52;94.54;103056.22;5075109;28;20951;-69
2022/01/18 09:40:14;;;;;;;0.40;0.30;;;;;;;4.56;94.23;103057.47;5075268;28;20452;-69
2022/01/18 09:42:43;;;;;;;0.40;0.30;;;;;;;4.58;94.04;103052.72;5075281;28;20481;-69
2022/01/18 09:45:13;;;;;;;0.40;0.30;;;;;;;4.66;93.83;103052.53;5075516;28;20849;-67
2022/01/18 09:47:42;;;;;;;0.40;0.20;;;;;;;4.75;93.64;103047.81;5074948;28;20864;-70
2022/01/18 09:50:13;;;;;;;0.40;0.30;;;;;;;4.85;93.51;103045.59;5075347;28;20437;-70
2022/01/18 09:52:40;;;;;;;0.40;0.27;;;;;;;4.91;92.64;103046.63;5075243;28;20461;-70
2022/01/18 09:55:08;;;;;;;0.40;0.23;;;;;;;4.96;92.35;103046.88;5075164;28;20444;-69
2022/01/18 09:57:34;;;;;;;0.40;0.30;;;;;;;5.05;92.50;103056.41;5075264;28;20447;-70
2022/01/18 10:00:01;;;;;;;0.40;0.30;;;;;;;5.09;92.01;103063.03;5074825;28;20441;-70
2022/01/18 10:02:28;;;;;;;0.40;0.20;;;;;;;5.07;90.82;103043.56;5074755;28;20458;-70
2022/01/18 10:04:57;;;;;;;0.40;0.30;;;;;;;5.12;90.79;103053.72;5075027;28;20536;-70
2022/01/18 10:07:33;;;;;;;0.40;0.30;;;;;;;5.10;90.85;103064.66;5074685;28;20943;-71
2022/01/18 10:10:01;;;;;;;0.40;0.30;;;;;;;5.09;90.78;103065.72;5074912;28;20429;-70
2022/01/18 10:12:28;;;;;;;0.40;0.30;;;;;;;5.14;90.85;103067.78;5074851;28;20437;-70
2022/01/18 10:14:57;;;;;;;0.40;0.30;;;;;;;5.21;90.76;103063.25;5088976;28;20460;-71
2022/01/18 10:17:30;;;;;;;0.40;0.20;;;;;;;5.22;90.97;103065.75;5094715;28;20803;-70
2022/01/18 10:20:03;;;;;;;0.40;0.30;;;;;;;5.30;89.78;103062.00;5094263;28;20465;-69
2022/01/18 10:22:40;;;;;;;0.40;0.30;;;;;;;5.36;90.07;103063.91;5094781;28;20472;-69
2022/01/18 10:25:14;;;;;;;0.40;0.30;;;;;;;5.42;89.66;103073.81;5094860;28;20526;-68
2022/01/18 10:27:40;;;;;;;1.47;1.37;;;;;;;5.52;89.02;103071.53;5094708;28;20445;-68
2022/01/18 10:30:15;;;;;;;0.40;0.30;;;;;;;5.63;89.02;103062.06;5094731;28;20436;-68
2022/01/18 10:32:42;;;;;;;0.40;0.30;;;;;;;5.66;88.36;103064.31;5094662;28;20502;-68
2022/01/18 10:35:24;;;;;;;0.40;0.30;;;;;;;5.71;88.26;103069.06;5096031;28;20453;-68
2022/01/18 10:37:52;;;;;;;0.40;0.30;;;;;;;5.72;87.63;103052.75;5076396;28;20440;-69
2022/01/18 10:40:20;;;;;;;0.40;0.20;;;;;;;5.77;87.01;103058.31;5094582;28;20441;-68
2022/01/18 10:42:50;;;;;;;0.40;0.30;;;;;;;5.70;86.60;103070.94;5094296;28;20477;-69
2022/01/18 10:45:23;;;;;;;0.40;0.30;;;;;;;5.77;87.13;103061.00;5094456;28;20440;-68
2022/01/18 10:47:52;;;;;;;0.40;0.20;;;;;;;5.80;86.68;103057.91;5094469;28;20439;-68
2022/01/18 10:50:20;;;;;;;0.40;0.30;;;;;;;5.85;86.44;103043.84;5094035;28;20953;-68
2022/01/18 10:52:46;;;;;;;0.40;0.30;;;;;;;5.88;86.13;103045.28;5094152;28;20460;-68
2022/01/18 10:55:19;;;;;;;0.40;0.20;;;;;;;5.90;85.39;103045.91;5094228;28;20448;-69
2022/01/18 10:57:46;;;;;;;0.40;0.30;;;;;;;5.90;84.99;103051.28;5093836;28;20948;-69
2022/01/18 11:00:16;;;;;;;0.40;0.30;;;;;;;6.00;85.34;103059.78;5094239;28;20440;-68
2022/01/18 11:02:44;;;;;;;0.40;0.30;;;;;;;6.07;85.21;103053.38;5093605;28;20484;-68
2022/01/18 11:05:16;;;;;;;0.40;0.30;;;;;;;6.07;84.74;103061.44;5094128;28;20497;-68
2022/01/18 11:07:43;;;;;;;0.40;0.30;;;;;;;6.03;83.74;103067.44;5094073;28;20794;-68
2022/01/18 11:10:11;;;;;;;0.40;0.20;;;;;;;6.06;83.25;103057.09;5094083;28;20443;-68
2022/01/18 11:12:46;;;;;;;0.40;0.30;;;;;;;6.11;83.06;103058.31;5093954;28;20476;-68
2022/01/18 11:15:19;;;;;;;0.40;0.30;;;;;;;6.08;83.58;103054.19;5093900;28;20444;-68
2022/01/18 11:17:50;;;;;;;0.40;0.20;;;;;;;6.12;83.79;103055.44;5093962;28;20805;-68
2022/01/18 11:20:20;;;;;;;0.40;0.30;;;;;;;6.02;82.84;103055.88;5093831;28;20511;-69
2022/01/18 11:22:49;;;;;;;0.40;0.20;;;;;;;6.13;83.53;103040.94;5093639;28;20456;-68
2022/01/18 11:25:17;;;;;;;0.40;0.30;;;;;;;6.16;83.02;103045.06;5093706;28;20444;-68
2022/01/18 11:27:49;;;;;;;0.40;0.30;;;;;;;6.13;83.02;103043.63;5093727;28;20447;-68
2022/01/18 11:30:15;;;;;;;0.40;0.30;;;;;;;6.15;82.59;103044.22;5093407;28;20882;-68
2022/01/18 11:32:43;;;;;;;0.40;0.30;;;;;;;6.16;83.37;103047.78;5092756;28;20471;-68
2022/01/18 11:35:12;;;;;;;0.40;0.30;;;;;;;6.24;82.87;103050.19;5093594;28;20456;-68
2022/01/18 11:37:46;;;;;;;0.40;0.30;;;;;;;6.21;82.23;103051.47;5093487;28;20471;-70
2022/01/18 11:40:15;;;;;;;0.40;0.30;;;;;;;6.18;82.68;103054.56;5093579;28;20428;-72
2022/01/18 11:42:50;;;;;;;0.40;0.30;;;;;;;6.25;82.75;103055.41;5093116;28;20977;-71
2022/01/18 11:45:37;;;;;;;0.40;0.30;;;;;;;6.35;82.14;103049.56;5093498;28;20791;-68
2022/01/18 11:48:07;;;;;;;0.40;0.20;;;;;;;6.39;82.18;103052.66;5093473;28;20425;-69
2022/01/18 11:50:37;;;;;;;0.40;0.27;;;;;;;6.40;81.54;103057.00;5093445;28;20442;-71
2022/01/18 11:53:44;;;;;;;0.40;0.30;;;;;;;6.43;81.84;103062.81;5093353;28;20557;-69
2022/01/18 11:56:16;;;;;;;0.40;0.20;;;;;;;6.43;81.86;103072.75;5093369;28;20440;-69
2022/01/18 11:59:15;;;;;;;0.40;0.30;;;;;;;6.46;82.51;103062.38;5093347;28;20441;-69
2022/01/18 12:01:50;;;;;;;0.40;0.30;;;;;;;6.45;82.93;103070.66;5093320;28;20433;-69
2022/01/18 12:04:54;;;;;;;0.40;0.30;;;;;;;6.54;82.48;103075.59;5093160;28;20487;-68
2022/01/18 12:07:55;;;;;;;0.40;0.30;;;;;;;6.52;82.13;103074.16;5093313;28;20432;-70
2022/01/18 12:10:47;;;;;;;0.40;0.30;;;;;;;6.63;82.45;103075.34;5092906;28;20890;-69
2022/01/18 12:13:25;;;;;;;0.40;0.30;;;;;;;6.70;82.48;103079.69;5093098;28;20464;-69
2022/01/18 12:15:57;;;;;;;0.40;0.30;;;;;;;6.77;82.55;103079.66;5093193;28;20765;-69
2022/01/18 12:18:25;;;;;;;0.40;0.30;;;;;;;6.74;82.83;103075.53;5092896;28;20428;-69